< < Back
Terminal Aerodrome Forecast


Current Version              Previous Versions:   1  2  3  4  5  6  7  8  9  

Terminal Aerodrome Forecast

493
FTUS42 KFFC 021554 AAA
TAFFTY
TAF AMD
KFTY 021554Z 0216/0312 07007KT P6SM FEW040
     FM022000 04004KT P6SM SCT050
     FM030100 00000KT P6SM FEW250=

Latest METAR

778
SAUS70 KWBC 030000 RRA
MTRFTY
METAR KFTY 022353Z 36004KT 10SM CLR 32/17 A2988 RMK AO2 SLP106 T03220167
10344 20322 55005


USA.gov is the U.S. government's official web portal to all federal, state and local government web resources and services.